METAR AND TAF INFORMATION
METAR FOR WIII
ADDS - METARS form results

(1751 UTC 15 July 2020)
Data provider http://aviationweather.gov/metar/data/
 
METAR text: WIII 151730Z 12009KT 7000 FEW020 27/23 Q1009 NOSIG
Conditions at: WIII (SOEKARNO-HATTA I, ID) observed 1730 UTC 15 July 2020
Temperature: 27.0°C (81°F)
Dewpoint: 23.0°C (73°F) [RH = 79%]
Pressure (altimeter): 29.79 inches Hg (1009.0 mb)
Winds: from the ESE (120 degrees) at 10 MPH (9 knots; 4.6 m/s)
Visibility: 4 miles ( 7 km)
Ceiling: at least 12,000 feet AGL
Clouds: few clouds at 2000 feet AGL
Weather: no significant weather observed at this time

METAR text: WIII 151700Z 11009KT 7000 FEW020 27/23 Q1010 NOSIG
Conditions at: WIII (SOEKARNO-HATTA I, ID) observed 1700 UTC 15 July 2020
Temperature: 27.0°C (81°F)
Dewpoint: 23.0°C (73°F) [RH = 79%]
Pressure (altimeter): 29.82 inches Hg (1010.0 mb)
Winds: from the ESE (110 degrees) at 10 MPH (9 knots; 4.6 m/s)
Visibility: 4 miles ( 7 km)
Ceiling: at least 12,000 feet AGL
Clouds: few clouds at 2000 feet AGL
Weather: no significant weather observed at this time

Forecast for: WIII (SOEKARNO-HATTA I, ID)
Text: TAF WIII 151700Z 1518/1624 11010KT 7000 SCT020
Forecast period: 1800 UTC 15 July 2020 to 0000 UTC 17 July 2020
Forecast type: FROM: standard forecast or significant change
Winds: from the ESE (110 degrees) at 12 MPH (10 knots; 5.1 m/s)
Visibility: 4 miles (7 km)
Ceiling: at least 12,000 feet AGL
Clouds: scattered clouds at 2000 feet AGL
Weather: no significant weather forecast for this period
Text: TEMPO 1519/1522 SHRA
Forecast period: 1900 to 2200 UTC 15 July 2020
Forecast type: TEMPORARY: The following changes expected for less than half the time period
Visibility: missing
Ceiling: unknown
Clouds: missing
Weather: SHRA  (rain showers)

 AIRPORT MAP

 RUNWAY INFORMATION
Runway 07L Runway length 11812 ft Runway width 197 ft
Runway elevation 29 ft Runway displaced threshold 0 ft Runway heading 68
Runway 25R Runway length 11812 ft Runway width 197 ft
Runway elevation 21 ft Runway displaced threshold 0 ft Runway heading 248
Runway 07R Runway length 12008 ft Runway width 197 ft
Runway elevation 34 ft Runway displaced threshold 0 ft Runway heading 68
Runway 25L Runway length 12008 ft Runway width 197 ft
Runway elevation 27 ft Runway displaced threshold 0 ft Runway heading 248

 AIRPORT FREQUENCIES
Type APP Name JAKARTA AP Frequency 119.75 MHZ
Type ARR Name JAKARTA AR Frequency 125.45 MHZ
Type ATIS Name ATIS Frequency 126.85 MHZ
Type CLD Name CLNC DEL Frequency 121.95 MHZ
Type FSS Name JAKARTA CE Frequency 129.7 MHZ
Type GND Name GND Frequency 121.6 MHZ
Type INFO Name PABELOKAN Frequency 129.8 MHZ
Type TWR Name TWR Frequency 118.75 MHZ

 AIRPORT NEAR NAVIGATION AIDS
Type VOR-DME Name Cengkareng Frequency 113600 KHZ
Type VOR-DME Name Jakarta Frequency 114600 KHZ



Powered by Virtual Airlines Manager [v2.6.2]